Flight Track Log - Related Links

Times and Time Zones

All times are in EDT time to prevent confusion due to time zone crossing. See the N500NM flight status page for this flight to view local times or setup timezone preferences in your user account.


Time Position Orientation Groundspeed Altitude Reporting Facility
EDT Latitude Longitude Course Direction KTS MPH feet Rate Location/Type
Tue 03:14:32 PM 25.6475 -80.4544 324° Northwest 107 123 500  Level Miami Center
Tue 03:15:27 PM 25.6492 -80.4800 274° West 97 112 1,200 672 Climbing Miami Center
Tue 03:16:28 PM 25.6442 -80.5122 260° West 100 115 1,800 621 Climbing Miami Center
Tue 03:17:23 PM 25.6478 -80.5375 279° West 145 167 2,400 724 Climbing Miami Center
Tue 03:18:24 PM 25.6831 -80.5433 352° North 119 137 3,200 718 Climbing Miami Center
Tue 03:19:20 PM 25.7142 -80.5489 351° North 126 145 3,800 744 Climbing Miami Center
Tue 03:20:00 PM 25.8372 -80.5598 324° Northwest  Level FlightAware Approximate
Tue 03:20:33 PM 25.7536 -80.5569 350° North 116 133 4,800  Level Miami Center
Tue 03:21:28 PM 25.7761 -80.5783 319° Northwest 108 124 5,500 724 Climbing Miami Center
Tue 03:22:29 PM 25.7919 -80.6089 300° West 110 127 6,200 709 Climbing Miami Center
Tue 03:23:35 PM 25.8122 -80.6372 308° West 110 127 7,000 568 Climbing Miami Center
Tue 03:23:43 PM 25.8183 -80.6397 340° North 113 130 6,900 -88 Descending Miami Center
Tue 03:24:43 PM 25.8425 -80.6750 307° West 152 175 6,900 50 Level Miami Center
Tue 03:25:43 PM 25.8772 -80.7039 323° Northwest 171 197 7,000 879 Climbing Miami Center
Tue 03:26:39 PM 25.9108 -80.7025 North 119 137 8,600 1,600 Climbing Miami Center
Tue 03:26:43 PM 25.9192 -80.7006 12° North 116 133 8,600 656 Level Miami Center
Tue 03:27:43 PM 25.9464 -80.6944 11° North 143 165 9,300 850 Climbing Miami Center
Tue 03:28:43 PM 25.9844 -80.6864 11° North 143 165 10,300 950 Climbing Miami Center
Tue 03:29:43 PM 26.0092 -80.6964 340° North 117 135 11,200 800 Climbing Miami Center
Tue 03:30:43 PM 26.0336 -80.7158 324° Northwest 102 117 11,900 600 Climbing Miami Center
Tue 03:31:43 PM 26.0564 -80.7303 330° Northwest 102 117 12,400 600 Climbing Miami Center
Tue 03:32:43 PM 26.0850 -80.7497 329° Northwest 107 123 13,100 700 Climbing Miami Center
Tue 03:33:43 PM 26.1117 -80.7669 330° Northwest 107 123 13,800 650 Climbing Miami Center
Tue 03:34:43 PM 26.1364 -80.7839 328° Northwest 107 123 14,400 550 Climbing Miami Center
Tue 03:35:43 PM 26.1608 -80.8008 328° Northwest 107 123 14,900 600 Climbing Miami Center
Tue 03:36:43 PM 26.1958 -80.8228 331° Northwest 113 130 15,600 700 Climbing Miami Center
Tue 03:37:43 PM 26.2225 -80.8400 330° Northwest 113 130 16,300 600 Climbing Miami Center
Tue 03:38:43 PM 26.2469 -80.8594 324° Northwest 113 130 16,800 550 Climbing Miami Center
Tue 03:39:43 PM 26.2736 -80.8764 330° Northwest 113 130 17,400 500 Climbing Miami Center
Tue 03:40:43 PM 26.3025 -80.8958 329° Northwest 118 136 17,800 500 Climbing Miami Center
Tue 03:41:43 PM 26.3311 -80.9131 332° Northwest 124 143 18,400 500 Climbing Miami Center
Tue 03:42:43 PM 26.3597 -80.9328 328° Northwest 124 143 18,800 450 Climbing Miami Center
Tue 03:43:43 PM 26.3906 -80.9522 331° Northwest 124 143 19,300 500 Climbing Miami Center
Tue 03:44:43 PM 26.4214 -80.9719 330° Northwest 124 143 19,800 350 Climbing Miami Center
Tue 03:45:43 PM 26.4522 -80.9939 327° Northwest 124 143 20,000 100 Climbing Miami Center
Tue 03:46:43 PM 26.4911 -81.0183 331° Northwest 134 154 20,000  Level Miami Center
Tue 03:47:43 PM 26.5300 -81.0431 330° Northwest 147 169 20,000  Level Miami Center
Tue 03:48:43 PM 26.5650 -81.0653 330° Northwest 155 178 20,000  Level Miami Center
Tue 03:49:43 PM 26.5997 -81.0872 331° Northwest 155 178 20,000  Level Miami Center
Tue 03:50:43 PM 26.6406 -81.1167 327° Northwest 155 178 20,000  Level Miami Center
Tue 03:51:43 PM 26.6797 -81.1389 333° Northwest 160 184 20,000  Level Miami Center
Tue 03:52:43 PM 26.7144 -81.1633 328° Northwest 160 184 20,000  Level Miami Center
Tue 03:53:43 PM 26.7492 -81.1858 330° Northwest 160 184 20,000  Level Miami Center
Tue 03:54:43 PM 26.7903 -81.2128 330° Northwest 160 184 20,000  Level Miami Center
Tue 03:55:43 PM 26.8250 -81.2372 328° Northwest 155 178 20,000  Level Miami Center
Tue 03:56:43 PM 26.8619 -81.2619 329° Northwest 155 178 20,000  Level Miami Center
Tue 03:57:43 PM 26.8925 -81.2819 330° Northwest 150 173 20,000  Level Miami Center
Tue 03:58:43 PM 26.9294 -81.3064 329° Northwest 150 173 20,000  Level Miami Center
Tue 03:59:43 PM 26.9683 -81.3314 330° Northwest 145 167 20,000  Level Miami Center
Tue 04:00:43 PM 27.0050 -81.3561 329° Northwest 145 167 20,000  Level Miami Center
Tue 04:01:43 PM 27.0419 -81.3783 332° Northwest 145 167 20,000  Level Miami Center
Tue 04:02:43 PM 27.0725 -81.4006 327° Northwest 145 167 20,000  Level Miami Center
Tue 04:03:43 PM 27.1075 -81.4231 330° Northwest 145 167 20,000  Level Miami Center
Tue 04:04:43 PM 27.1464 -81.4478 331° Northwest 145 167 20,000  Level Miami Center
Tue 04:05:43 PM 27.1808 -81.4725 327° Northwest 145 167 20,000  Level Miami Center
Tue 04:06:43 PM 27.2158 -81.4950 330° Northwest 145 167 20,000  Level Miami Center
Tue 04:07:43 PM 27.2464 -81.5172 327° Northwest 139 160 20,000  Level Miami Center
Tue 04:08:43 PM 27.2750 -81.5347 331° Northwest 139 160 20,000  Level Miami Center
Tue 04:09:43 PM 27.3200 -81.5644 330° Northwest 139 160 20,000  Level Miami Center
Tue 04:10:55 PM 27.3547 -81.5892 328° Northwest 139 160 20,000  Level Miami Center
Tue 04:11:55 PM 27.3933 -81.6167 328° Northwest 139 160 20,000  Level Miami Center
Tue 04:12:55 PM 27.4342 -81.6417 331° Northwest 139 160 20,000  Level Miami Center
Tue 04:13:55 PM 27.4689 -81.6642 330° Northwest 139 160 20,000  Level Miami Center
Tue 04:14:55 PM 27.5036 -81.6892 327° Northwest 139 160 20,000  Level Miami Center
Tue 04:15:55 PM 27.5342 -81.7114 327° Northwest 139 160 20,000  Level Miami Center
Tue 04:16:55 PM 27.5711 -81.7342 331° Northwest 139 160 20,000  Level Miami Center
Tue 04:17:55 PM 27.6078 -81.7592 329° Northwest 139 160 20,000  Level Miami Center
Tue 04:18:55 PM 27.6422 -81.7839 328° Northwest 139 160 20,000  Level Miami Center
Tue 04:19:55 PM 27.6769 -81.8067 330° Northwest 139 160 20,000  Level Miami Center
Tue 04:20:55 PM 27.7078 -81.8267 330° Northwest 139 160 20,000  Level Miami Center
Tue 04:22:27 PM 27.7661 -81.8653 330° Northwest 142 163 20,000  Level Jacksonville Center
Tue 04:23:27 PM 27.8039 -81.8886 331° Northwest 142 163 20,000  Level Jacksonville Center
Tue 04:24:27 PM 27.8375 -81.9139 326° Northwest 147 169 20,000  Level Jacksonville Center
Tue 04:25:27 PM 27.8711 -81.9372 328° Northwest 147 169 20,000  Level Jacksonville Center
Tue 04:26:27 PM 27.9067 -81.9603 330° Northwest 147 169 20,000  Level Jacksonville Center
Tue 04:27:27 PM 27.9422 -81.9858 328° Northwest 147 169 20,000  Level Jacksonville Center
Tue 04:28:27 PM 27.9778 -82.0089 330° Northwest 147 169 20,000  Level Jacksonville Center
Tue 04:29:27 PM 28.0114 -82.0369 324° Northwest 147 169 20,000  Level Jacksonville Center
Tue 04:30:27 PM 28.0431 -82.0647 322° Northwest 147 169 20,000  Level Jacksonville Center
Tue 04:31:27 PM 28.0722 -82.0928 320° Northwest 142 163 20,000  Level Jacksonville Center
Tue 04:32:27 PM 28.1039 -82.1208 322° Northwest 142 163 20,000  Level Jacksonville Center
Tue 04:33:27 PM 28.1353 -82.1489 322° Northwest 142 163 20,000  Level Jacksonville Center
Tue 04:34:27 PM 28.1667 -82.1769 322° Northwest 142 163 20,000  Level Jacksonville Center
Tue 04:35:27 PM 28.2003 -82.2072 322° Northwest 137 158 20,000  Level Jacksonville Center
Tue 04:36:27 PM 28.2339 -82.2353 324° Northwest 137 158 20,000  Level Jacksonville Center
Tue 04:37:27 PM 28.2653 -82.2633 322° Northwest 137 158 20,000  Level Jacksonville Center
Tue 04:38:27 PM 28.2989 -82.2939 321° Northwest 142 163 20,000  Level Jacksonville Center
Tue 04:39:27 PM 28.3322 -82.3242 321° Northwest 142 163 20,000  Level Jacksonville Center
Tue 04:40:27 PM 28.3658 -82.3522 324° Northwest 147 169 20,000  Level Jacksonville Center
Tue 04:41:27 PM 28.3953 -82.3806 320° Northwest 147 169 20,000  Level Jacksonville Center
Tue 04:42:27 PM 28.4267 -82.4111 319° Northwest 147 169 20,000  Level Jacksonville Center
Tue 04:43:27 PM 28.4600 -82.4369 326° Northwest 142 163 20,000  Level Jacksonville Center
Tue 04:44:27 PM 28.4894 -82.4650 320° Northwest 142 163 20,000  Level Jacksonville Center
Tue 04:45:27 PM 28.5186 -82.4908 322° Northwest 137 158 20,000  Level Jacksonville Center
Tue 04:46:27 PM 28.5500 -82.5217 319° Northwest 137 158 20,000  Level Jacksonville Center
Tue 04:47:27 PM 28.5814 -82.5497 322° Northwest 137 158 20,000  Level Jacksonville Center
Tue 04:48:27 PM 28.6128 -82.5781 322° Northwest 137 158 20,000  Level Jacksonville Center
Tue 04:49:27 PM 28.6442 -82.6064 322° Northwest 137 158 20,000  Level Jacksonville Center
Tue 04:50:27 PM 28.6733 -82.6322 322° Northwest 137 158 20,000  Level Jacksonville Center
Tue 04:51:27 PM 28.7028 -82.6583 322° Northwest 137 158 20,000  Level Jacksonville Center
Tue 04:52:27 PM 28.7342 -82.6867 322° Northwest 137 158 20,000  Level Jacksonville Center
Tue 04:53:27 PM 28.7633 -82.7150 320° Northwest 137 158 20,000  Level Jacksonville Center
Tue 04:54:27 PM 28.7947 -82.7408 324° Northwest 137 158 20,000  Level Jacksonville Center
Tue 04:55:27 PM 28.8261 -82.7694 321° Northwest 137 158 20,000  Level Jacksonville Center
Tue 04:56:27 PM 28.8553 -82.8003 317° Northwest 137 158 20,000  Level Jacksonville Center
Tue 04:57:27 PM 28.8719 -82.8356 298° West 131 151 20,000  Level Jacksonville Center
Tue 04:58:27 PM 28.8928 -82.8736 302° West 131 151 20,000  Level Jacksonville Center
Tue 04:59:27 PM 28.9158 -82.9069 308° West 136 157 20,000  Level Jacksonville Center
Tue 05:01:27 PM 28.9783 -82.9639 321° Northwest 141 162 20,000  Level Jacksonville Center
Tue 05:02:27 PM 29.0097 -82.9900 324° Northwest 141 162 20,000  Level Jacksonville Center
Tue 05:03:27 PM 29.0411 -83.0183 322° Northwest 141 162 20,000  Level Jacksonville Center
Tue 05:04:27 PM 29.0722 -83.0447 323° Northwest 141 162 20,000  Level Jacksonville Center
Tue 05:05:27 PM 29.1036 -83.0731 322° Northwest 141 162 20,000  Level Jacksonville Center
Tue 05:06:27 PM 29.1347 -83.0994 323° Northwest 136 157 20,000  Level Jacksonville Center
Tue 05:07:28 PM 29.1661 -83.1281 321° Northwest 136 157 20,000  Level Jacksonville Center
Tue 05:08:27 PM 29.1972 -83.1542 324° Northwest 136 157 20,000  Level Jacksonville Center
Tue 05:09:27 PM 29.2264 -83.1806 322° Northwest 136 157 20,000  Level Jacksonville Center
Tue 05:10:27 PM 29.2556 -83.2067 322° Northwest 136 157 20,000  Level Jacksonville Center
Tue 05:11:27 PM 29.2869 -83.2356 321° Northwest 136 157 20,000  Level Jacksonville Center
Tue 05:12:27 PM 29.3181 -83.2642 321° Northwest 136 157 20,000  Level Jacksonville Center
Tue 05:13:27 PM 29.3494 -83.2906 324° Northwest 136 157 20,000  Level Jacksonville Center
Tue 05:14:27 PM 29.3786 -83.3167 322° Northwest 136 157 20,000  Level Jacksonville Center
Tue 05:15:27 PM 29.4097 -83.3456 321° Northwest 136 157 20,000  Level Jacksonville Center
Tue 05:16:27 PM 29.4389 -83.3719 322° Northwest 136 157 20,000  Level Jacksonville Center
Tue 05:17:27 PM 29.4681 -83.4006 320° Northwest 136 157 20,000  Level Jacksonville Center
Tue 05:18:27 PM 29.4908 -83.4317 310° West 131 151 20,000  Level Jacksonville Center
Tue 05:19:27 PM 29.5136 -83.4653 308° West 131 151 20,000  Level Jacksonville Center
Tue 05:20:27 PM 29.5364 -83.4964 310° West 131 151 20,000  Level Jacksonville Center
Tue 05:21:27 PM 29.5614 -83.5300 311° West 131 151 20,000  Level Jacksonville Center
Tue 05:22:27 PM 29.5842 -83.5611 310° West 131 151 20,000  Level Jacksonville Center
Tue 05:23:27 PM 29.6050 -83.5925 307° West 131 151 20,000  Level Jacksonville Center
Tue 05:24:27 PM 29.6278 -83.6236 310° West 131 151 20,000  Level Jacksonville Center
Tue 05:25:27 PM 29.6483 -83.6550 307° West 131 151 20,000  Level Jacksonville Center
Tue 05:26:27 PM 29.6711 -83.6814 315° West 131 151 20,000  Level Jacksonville Center
Tue 05:27:27 PM 29.6919 -83.7103 310° West 131 151 20,000  Level Jacksonville Center
Tue 05:28:27 PM 29.7125 -83.7414 307° West 126 145 20,000  Level Jacksonville Center
Tue 05:29:27 PM 29.7331 -83.7703 309° West 126 145 20,000  Level Jacksonville Center
Tue 05:30:27 PM 29.7539 -83.7992 310° West 126 145 20,000  Level Jacksonville Center
Tue 05:31:27 PM 29.7725 -83.8306 304° West 121 139 20,000  Level Jacksonville Center
Tue 05:32:27 PM 29.7931 -83.8569 312° West 121 139 20,000  Level Jacksonville Center
Tue 05:33:27 PM 29.8139 -83.8883 307° West 121 139 20,000  Level Jacksonville Center
Tue 05:34:27 PM 29.8303 -83.9197 301° West 121 139 20,000  Level Jacksonville Center
Tue 05:35:27 PM 29.8425 -83.9558 291° West 116 133 20,000  Level Jacksonville Center
Tue 05:36:27 PM 29.8547 -83.9894 293° West 116 133 20,000  Level Jacksonville Center
Tue 05:37:27 PM 29.8689 -84.0208 298° West 116 133 20,000  Level Jacksonville Center
Tue 05:38:27 PM 29.8811 -84.0544 293° West 116 133 20,000  Level Jacksonville Center
Tue 05:39:27 PM 29.9039 -84.0833 312° West 116 133 20,000  Level Jacksonville Center
Tue 05:40:27 PM 29.9203 -84.1147 301° West 116 133 20,000  Level Jacksonville Center
Tue 05:41:27 PM 29.9347 -84.1461 298° West 116 133 20,000  Level Jacksonville Center
Tue 05:42:27 PM 29.9511 -84.1797 299° West 116 133 20,000  Level Jacksonville Center
Tue 05:43:27 PM 29.9653 -84.2136 296° West 116 133 20,000  Level Jacksonville Center
Tue 05:44:27 PM 29.9817 -84.2475 299° West 116 133 20,000  Level Jacksonville Center
Tue 05:45:27 PM 29.9939 -84.2836 291° West 116 133 20,000  Level Jacksonville Center
Tue 05:46:27 PM 30.0103 -84.3150 301° West 116 133 20,000  Level Jacksonville Center
Tue 05:47:27 PM 30.0264 -84.3464 301° West 116 133 20,000  Level Jacksonville Center
Tue 05:48:27 PM 30.0408 -84.3803 296° West 111 128 20,000  Level Jacksonville Center
Tue 05:49:27 PM 30.0550 -84.4142 296° West 111 128 20,000  Level Jacksonville Center
Tue 05:50:27 PM 30.0692 -84.4478 296° West 111 128 20,000  Level Jacksonville Center
Tue 05:51:27 PM 30.0833 -84.4769 299° West 111 128 20,000  Level Jacksonville Center
Tue 05:52:27 PM 30.0997 -84.5108 299° West 116 133 20,000  Level Jacksonville Center
Tue 05:53:27 PM 30.1158 -84.5447 299° West 116 133 20,000  Level Jacksonville Center
Tue 05:54:27 PM 30.1281 -84.5808 291° West 116 133 20,000  Level Jacksonville Center
Tue 05:55:27 PM 30.1442 -84.6125 300° West 116 133 20,000  Level Jacksonville Center
Tue 05:56:27 PM 30.1583 -84.6464 296° West 116 133 20,000  Level Jacksonville Center
Tue 06:20:15 PM 30.5064 -85.4314 297° West 117 135 20,000  Level Jacksonville Center
Tue 06:21:00 PM 30.5693 -85.5811 297° West  Level FlightAware Approximate
Tue 06:21:15 PM 30.5244 -85.4633 303° West 117 135 20,000  Level Jacksonville Center
Tue 06:22:00 PM 30.5859 -85.6193 297° West  Level FlightAware Approximate
Tue 06:22:15 PM 30.5364 -85.4900 297° West 117 135 20,000  Level Jacksonville Center
Tue 06:23:00 PM 30.6024 -85.6576 297° West  Level FlightAware Approximate
Tue 06:23:15 PM 30.5506 -85.5242 296° West 117 135 20,000  Level Jacksonville Center
Tue 06:24:00 PM 30.6190 -85.6958 297° West  Level FlightAware Approximate
Tue 06:24:15 PM 30.5644 -85.5583 295° West 117 135 20,000  Level Jacksonville Center
Tue 06:25:00 PM 30.6356 -85.7341 297° West  Level FlightAware Approximate
Tue 06:25:15 PM 30.5783 -85.5903 297° West 112 129 20,000  Level Jacksonville Center
Tue 06:26:15 PM 30.5922 -85.6219 297° West 112 129 20,000  Level Jacksonville Center
Tue 06:27:15 PM 30.6061 -85.6561 295° West 112 129 20,000  Level Jacksonville Center
Tue 06:28:15 PM 30.6200 -85.6878 297° West 112 129 20,000  Level Jacksonville Center
Tue 06:29:15 PM 30.6339 -85.7219 295° West 112 129 20,000  Level Jacksonville Center
Tue 06:30:15 PM 30.6497 -85.7539 300° West 117 135 20,000  Level Jacksonville Center
Tue 06:31:15 PM 30.6636 -85.7858 297° West 117 135 20,000  Level Jacksonville Center
Tue 06:32:15 PM 30.6775 -85.8200 295° West 112 129 20,000  Level Jacksonville Center
Tue 06:33:15 PM 30.6936 -85.8519 300° West 112 129 20,000  Level Jacksonville Center
Tue 06:34:15 PM 30.7072 -85.8861 295° West 112 129 20,000  Level Jacksonville Center
Tue 06:35:15 PM 30.7211 -85.9181 297° West 112 129 20,000  Level Jacksonville Center
Tue 06:36:15 PM 30.7372 -85.9500 300° West 112 129 20,000  Level Jacksonville Center
Tue 06:37:15 PM 30.7508 -85.9842 295° West 112 129 20,000  Level Jacksonville Center
Tue 06:38:15 PM 30.7669 -86.0186 299° West 112 129 20,000  Level Jacksonville Center
Tue 06:39:15 PM 30.7786 -86.0503 293° West 112 129 20,000  Level Jacksonville Center
Tue 06:40:15 PM 30.7944 -86.0847 298° West 112 129 20,000  Level Jacksonville Center
Tue 06:41:15 PM 30.8081 -86.1189 295° West 112 129 20,000  Level Jacksonville Center
Tue 06:42:15 PM 30.8136 -86.1556 280° West 112 129 20,000  Level Jacksonville Center
Tue 06:43:15 PM 30.8147 -86.1917 272° West 112 129 20,000  Level Jacksonville Center
Tue 06:44:15 PM 30.8158 -86.2281 272° West 117 135 20,000  Level Jacksonville Center
Tue 06:45:15 PM 30.8169 -86.2669 272° West 122 140 20,000  Level Jacksonville Center
Tue 06:46:15 PM 30.8158 -86.3081 268° West 122 140 20,000  Level Jacksonville Center
Tue 06:47:15 PM 30.8169 -86.3419 272° West 122 140 20,000  Level Jacksonville Center
Tue 06:48:15 PM 30.8178 -86.3831 271° West 122 140 20,000  Level Jacksonville Center
Tue 06:49:15 PM 30.8211 -86.4169 277° West 117 135 20,000  Level Jacksonville Center
Tue 06:50:15 PM 30.8219 -86.4581 271° West 123 142 20,000  Level Jacksonville Center
Tue 06:51:15 PM 30.8208 -86.4992 268° West 123 142 20,000  Level Jacksonville Center
Tue 06:52:15 PM 30.8219 -86.5356 272° West 123 142 20,000  Level Jacksonville Center
Tue 06:53:15 PM 30.8250 -86.5767 275° West 123 142 20,000  Level Jacksonville Center
Tue 06:54:15 PM 30.8239 -86.6156 268° West 123 142 20,000  Level Jacksonville Center
Tue 06:55:15 PM 30.8247 -86.6567 271° West 123 142 20,000 -50 Level Jacksonville Center
Tue 06:56:15 PM 30.8256 -86.7000 271° West 123 142 19,900 -300 Descending Jacksonville Center
Tue 06:57:15 PM 30.8219 -86.7436 265° West 128 147 19,400 -550 Descending Jacksonville Center
Tue 06:58:15 PM 30.8206 -86.7942 268° West 141 162 18,800 -585 Descending Jacksonville Center
Tue 06:58:37 PM 30.8156 -86.8158 255° West 151 174 18,600 -610 Descending Jacksonville Center
Tue 06:59:14 PM 30.8106 -86.8447 259° West 150 173 18,200 -632 Descending Jacksonville Center
Tue 06:59:15 PM 30.8150 -86.8425 23° Northeast 147 169 18,200 -492 Level Jacksonville Center
Tue 07:00:15 PM 30.8114 -86.8883 265° West 152 175 17,700 -545 Descending Jacksonville Center
Tue 07:00:32 PM 30.8064 -86.9097 255° West 151 174 17,500 -600 Descending Jacksonville Center
Tue 07:01:15 PM 30.8056 -86.9364 268° West 152 175 17,100 -590 Descending Jacksonville Center
Tue 07:01:33 PM 30.8028 -86.9581 262° West 149 171 16,900 -500 Descending Jacksonville Center
Tue 07:02:15 PM 30.8042 -86.9869 273° West 152 175 16,600 -492 Descending Jacksonville Center
Tue 07:02:34 PM 30.7992 -87.0061 253° West 152 175 16,400 -500 Descending Jacksonville Center
Tue 07:03:15 PM 30.7983 -87.0350 268° West 157 181 16,100 -667 Descending Jacksonville Center
Tue 07:03:28 PM 30.7956 -87.0519 259° West 152 175 15,800 -600 Descending Jacksonville Center
Tue 07:04:15 PM 30.7947 -87.0833 268° West 157 181 15,500 -537 Descending Jacksonville Center
Tue 07:04:35 PM 30.7897 -87.1072 256° West 155 178 15,200 -774 Descending Jacksonville Center
Tue 07:05:17 PM 30.7864 -87.1411 263° West 153 176 14,700 -540 Descending Jacksonville Center
Tue 07:06:15 PM 30.7869 -87.1844 271° West 157 181 14,300 -492 Descending Jacksonville Center
Tue 07:06:18 PM 30.7847 -87.1892 241° Southwest 154 177 14,200 -600 Descending Jacksonville Center
Tue 07:07:15 PM 30.7814 -87.2325 265° West 157 181 13,700 -689 Descending Jacksonville Center
Tue 07:07:19 PM 30.7767 -87.2422 241° Southwest 155 178 13,500 -738 Descending Jacksonville Center
Tue 07:08:20 PM 30.7731 -87.2928 265° West 156 180 12,900 -595 Descending Jacksonville Center
Tue 07:09:20 PM 30.7714 -87.3408 268° West 154 177 12,300 -470 Descending Jacksonville Center
Tue 07:10:15 PM 30.7681 -87.3747 263° West 157 181 12,000 -470 Descending Jacksonville Center
Tue 07:11:15 PM 30.7642 -87.4228 265° West 157 181 11,400 -806 Descending Jacksonville Center
Tue 07:11:22 PM 30.7617 -87.4372 259° West 147 169 11,100 -600 Descending Jacksonville Center
Tue 07:12:15 PM 30.7603 -87.4708 267° West 157 181 10,800 -492 Descending Jacksonville Center
Tue 07:12:23 PM 30.7578 -87.4853 259° West 146 168 10,600 -600 Descending Jacksonville Center
Tue 07:13:15 PM 30.7544 -87.5167 263° West 157 181 10,200 -636 Descending Jacksonville Center
Tue 07:13:29 PM 30.7517 -87.5358 260° West 148 170 9,900 -653 Descending Jacksonville Center
Tue 07:15:42 PM 30.7469 -87.6400 267° West 150 173 8,600 -612 Descending Houston Center
Tue 07:16:45 PM 30.7417 -87.6922 263° West 159 183 7,900 -672 Descending Houston Center
Tue 07:17:47 PM 30.7369 -87.7486 264° West 169 194 7,200 -677 Descending Houston Center
Tue 07:18:49 PM 30.7317 -87.8050 264° West 173 199 6,500 -677 Descending Houston Center
Tue 07:19:51 PM 30.6900 -87.8517 224° Southwest 201 231 5,800 -774 Descending Houston Center
Tue 07:20:53 PM 30.6553 -87.9153 238° Southwest 203 234 4,900 -871 Descending Houston Center
Tue 07:21:55 PM 30.6139 -87.9589 222° Southwest 203 234 4,000 -726 Descending Houston Center
Tue 07:22:57 PM 30.5797 -88.0050 229° Southwest 201 231 3,400 -581 Descending Houston Center
Tue 07:23:59 PM 30.5564 -88.0564 242° Southwest 187 215 2,800 -576 Descending Houston Center
Tue 07:25:02 PM 30.5447 -88.1050 254° West 173 199 2,200 -384 Descending Houston Center
Tue 07:26:04 PM 30.5672 -88.1422 305° West 156 180 2,000 -145 Descending Houston Center
Tue 07:27:06 PM 30.6008 -88.1689 326° Northwest 134 154 1,900 -194 Descending Houston Center
Tue 07:28:08 PM 30.6264 -88.1906 324° Northwest 122 140 1,600 -387 Descending Houston Center
Tue 07:29:10 PM 30.6481 -88.2083 325° Northwest 109 125 1,100 -435 Descending Houston Center
Tue 07:30:12 PM 30.6675 -88.2253 323° Northwest 97 112 700 -387 Descending Houston Center
Tue 07:31:14 PM 30.6906 -88.2442 325° Northwest 93 107 300 -387 Descending Houston Center

Login

Don't have an account? Register now (free) for customized features, flight alerts, and more!